Nashville, Tennessee
Traffic Map
Current Weather Conditions
Nashville, Tennessee
Broken Clouds
Broken Clouds
23°
Feels Like: 23°
Wind Chill: 23° Ceiling: 25000
Heat Index: 23° Visibility: 10mi
Dew Point: 21° Wind: 3mph
Humidity: 90% Direction: 160° (SSE)
Pressure: 30.01in Gusts: 0mph
Raw Report DataKBNA 241053Z 16003KT 10SM BKN250 23/21 A3001 RMK AO2 SLP155 T02280211 $
Traffic Incident Summary
Active as of:
Severity:
Category:
InformationThere was an issue retrieving the traffic information for this location. Please try a different location or try again shortly.
Advertisements
Track Severe Weather on mobile